Glenover, Nebraska
Current Conditions -  °F | °C
As of 1:15 PM on Friday 21 Nov 2014 (Local Time) from KBIE Reporting Station
Clear Clear  
Wind Chill: 41°   Ceiling: Unl
Heat Index: 44°   Visibility: 10mi
Dew Point: 28°   Wind: 6mph
Humidity: 52%   Direction: 160°SSE
Pressure: 30.07"   Gusts: NA
Location:  40.2674°N, 96.7699°W
Report Text: KBIE 211915Z AUTO 16005KT 10SM CLR 07/M02 A3007 RMK AO2 T00691024
Loading
Personal Weather Stations






























Interactive Weather Map New forecast layout! Learn more

10-Day Weather Forecast

Advertisements
Track Severe Weather on mobile